sensor_id;sensor_type;location;lat;lon;timestamp;P1;durP1;ratioP1;P2;durP2;ratioP2
23113;SDS011;11726;50.122;8.832;2023-03-08T00:01:25;5.07;;;3.92;;
23113;SDS011;11726;50.122;8.832;2023-03-08T00:03:53;4.68;;;4.18;;
23113;SDS011;11726;50.122;8.832;2023-03-08T00:06:21;3.38;;;3.08;;
23113;SDS011;11726;50.122;8.832;2023-03-08T00:08:49;3.80;;;3.38;;
23113;SDS011;11726;50.122;8.832;2023-03-08T00:11:19;3.95;;;3.50;;
23113;SDS011;11726;50.122;8.832;2023-03-08T00:13:45;4.63;;;3.63;;
23113;SDS011;11726;50.122;8.832;2023-03-08T00:16:12;7.40;;;4.95;;
23113;SDS011;11726;50.122;8.832;2023-03-08T00:18:39;6.10;;;4.70;;
23113;SDS011;11726;50.122;8.832;2023-03-08T00:21:07;7.03;;;4.65;;
23113;SDS011;11726;50.122;8.832;2023-03-08T00:23:36;8.23;;;4.93;;
23113;SDS011;11726;50.122;8.832;2023-03-08T00:26:03;5.50;;;4.32;;
23113;SDS011;11726;50.122;8.832;2023-03-08T00:28:30;6.43;;;4.50;;
23113;SDS011;11726;50.122;8.832;2023-03-08T00:30:58;5.35;;;4.30;;
23113;SDS011;11726;50.122;8.832;2023-03-08T00:33:27;5.65;;;4.57;;
23113;SDS011;11726;50.122;8.832;2023-03-08T00:36:02;6.47;;;4.93;;
23113;SDS011;11726;50.122;8.832;2023-03-08T00:38:33;6.22;;;4.70;;
23113;SDS011;11726;50.122;8.832;2023-03-08T00:41:01;7.05;;;5.32;;
23113;SDS011;11726;50.122;8.832;2023-03-08T00:43:29;6.90;;;5.18;;
23113;SDS011;11726;50.122;8.832;2023-03-08T00:45:56;6.57;;;4.82;;
23113;SDS011;11726;50.122;8.832;2023-03-08T00:48:23;6.90;;;5.30;;
23113;SDS011;11726;50.122;8.832;2023-03-08T00:50:50;6.28;;;5.00;;
23113;SDS011;11726;50.122;8.832;2023-03-08T00:53:16;7.00;;;4.65;;
23113;SDS011;11726;50.122;8.832;2023-03-08T00:55:49;7.10;;;5.07;;
23113;SDS011;11726;50.122;8.832;2023-03-08T00:58:23;6.13;;;4.57;;
23113;SDS011;11726;50.122;8.832;2023-03-08T01:00:51;5.93;;;4.53;;
23113;SDS011;11726;50.122;8.832;2023-03-08T01:03:19;6.40;;;4.70;;
23113;SDS011;11726;50.122;8.832;2023-03-08T01:05:48;7.70;;;4.68;;
23113;SDS011;11726;50.122;8.832;2023-03-08T01:08:17;5.88;;;3.90;;
23113;SDS011;11726;50.122;8.832;2023-03-08T01:10:47;4.28;;;3.58;;
23113;SDS011;11726;50.122;8.832;2023-03-08T01:13:15;6.53;;;4.15;;
23113;SDS011;11726;50.122;8.832;2023-03-08T01:15:43;4.05;;;3.42;;
23113;SDS011;11726;50.122;8.832;2023-03-08T01:18:09;4.47;;;3.63;;
23113;SDS011;11726;50.122;8.832;2023-03-08T01:20:37;5.18;;;3.90;;
23113;SDS011;11726;50.122;8.832;2023-03-08T01:23:03;4.47;;;3.60;;
23113;SDS011;11726;50.122;8.832;2023-03-08T01:25:30;4.05;;;3.40;;
23113;SDS011;11726;50.122;8.832;2023-03-08T01:27:56;4.82;;;3.67;;
23113;SDS011;11726;50.122;8.832;2023-03-08T01:30:23;3.92;;;3.50;;
23113;SDS011;11726;50.122;8.832;2023-03-08T01:32:50;4.85;;;3.80;;
23113;SDS011;11726;50.122;8.832;2023-03-08T01:35:16;5.25;;;4.20;;
23113;SDS011;11726;50.122;8.832;2023-03-08T01:37:43;5.43;;;3.90;;
23113;SDS011;11726;50.122;8.832;2023-03-08T01:40:13;4.53;;;3.95;;
23113;SDS011;11726;50.122;8.832;2023-03-08T01:42:41;6.63;;;3.97;;
23113;SDS011;11726;50.122;8.832;2023-03-08T01:45:59;5.75;;;4.30;;
23113;SDS011;11726;50.122;8.832;2023-03-08T01:48:13;5.78;;;4.10;;
23113;SDS011;11726;50.122;8.832;2023-03-08T01:50:41;5.78;;;4.20;;
23113;SDS011;11726;50.122;8.832;2023-03-08T01:53:10;5.20;;;4.07;;
23113;SDS011;11726;50.122;8.832;2023-03-08T01:55:38;4.90;;;4.35;;
23113;SDS011;11726;50.122;8.832;2023-03-08T01:58:05;5.18;;;4.22;;
23113;SDS011;11726;50.122;8.832;2023-03-08T02:00:31;6.63;;;5.00;;
23113;SDS011;11726;50.122;8.832;2023-03-08T02:02:59;5.68;;;4.53;;
23113;SDS011;11726;50.122;8.832;2023-03-08T02:05:28;6.60;;;4.90;;
23113;SDS011;11726;50.122;8.832;2023-03-08T02:07:55;7.75;;;5.00;;
23113;SDS011;11726;50.122;8.832;2023-03-08T02:10:22;6.15;;;4.70;;
23113;SDS011;11726;50.122;8.832;2023-03-08T02:12:49;8.23;;;5.32;;
23113;SDS011;11726;50.122;8.832;2023-03-08T02:15:16;7.07;;;5.25;;
23113;SDS011;11726;50.122;8.832;2023-03-08T02:17:45;7.50;;;5.18;;
23113;SDS011;11726;50.122;8.832;2023-03-08T02:20:14;8.63;;;5.43;;
23113;SDS011;11726;50.122;8.832;2023-03-08T02:22:42;7.60;;;5.50;;
23113;SDS011;11726;50.122;8.832;2023-03-08T02:25:17;6.93;;;5.25;;
23113;SDS011;11726;50.122;8.832;2023-03-08T02:27:47;8.63;;;5.90;;
23113;SDS011;11726;50.122;8.832;2023-03-08T02:30:15;8.50;;;5.47;;
23113;SDS011;11726;50.122;8.832;2023-03-08T02:32:47;8.73;;;6.00;;
23113;SDS011;11726;50.122;8.832;2023-03-08T02:35:13;8.65;;;6.18;;
23113;SDS011;11726;50.122;8.832;2023-03-08T02:37:40;9.35;;;6.30;;
23113;SDS011;11726;50.122;8.832;2023-03-08T02:40:07;8.45;;;5.90;;
23113;SDS011;11726;50.122;8.832;2023-03-08T02:42:35;9.68;;;5.95;;
23113;SDS011;11726;50.122;8.832;2023-03-08T02:45:01;8.43;;;5.85;;
23113;SDS011;11726;50.122;8.832;2023-03-08T02:47:28;8.38;;;5.70;;
23113;SDS011;11726;50.122;8.832;2023-03-08T02:49:55;8.85;;;5.88;;
23113;SDS011;11726;50.122;8.832;2023-03-08T02:52:21;10.35;;;6.30;;
23113;SDS011;11726;50.122;8.832;2023-03-08T02:54:48;9.23;;;5.82;;
23113;SDS011;11726;50.122;8.832;2023-03-08T02:57:15;8.07;;;6.05;;
23113;SDS011;11726;50.122;8.832;2023-03-08T02:59:41;10.98;;;6.38;;
23113;SDS011;11726;50.122;8.832;2023-03-08T03:02:08;11.70;;;6.47;;
23113;SDS011;11726;50.122;8.832;2023-03-08T03:04:34;11.70;;;6.93;;
23113;SDS011;11726;50.122;8.832;2023-03-08T03:07:01;11.15;;;6.78;;
23113;SDS011;11726;50.122;8.832;2023-03-08T03:09:28;9.82;;;6.72;;
23113;SDS011;11726;50.122;8.832;2023-03-08T03:11:55;9.25;;;6.20;;
23113;SDS011;11726;50.122;8.832;2023-03-08T03:14:22;10.38;;;6.63;;
23113;SDS011;11726;50.122;8.832;2023-03-08T03:16:48;10.13;;;6.40;;
23113;SDS011;11726;50.122;8.832;2023-03-08T03:19:15;11.02;;;6.57;;
23113;SDS011;11726;50.122;8.832;2023-03-08T03:21:41;10.50;;;7.20;;
23113;SDS011;11726;50.122;8.832;2023-03-08T03:24:08;9.02;;;6.05;;
23113;SDS011;11726;50.122;8.832;2023-03-08T03:26:35;10.05;;;6.53;;
23113;SDS011;11726;50.122;8.832;2023-03-08T03:29:01;9.15;;;6.30;;
23113;SDS011;11726;50.122;8.832;2023-03-08T03:31:28;9.80;;;6.70;;
23113;SDS011;11726;50.122;8.832;2023-03-08T03:33:56;11.23;;;7.30;;
23113;SDS011;11726;50.122;8.832;2023-03-08T03:36:22;11.70;;;7.43;;
23113;SDS011;11726;50.122;8.832;2023-03-08T03:38:49;10.00;;;6.85;;
23113;SDS011;11726;50.122;8.832;2023-03-08T03:41:20;10.88;;;6.80;;
23113;SDS011;11726;50.122;8.832;2023-03-08T03:43:47;10.43;;;6.72;;
23113;SDS011;11726;50.122;8.832;2023-03-08T03:46:16;11.73;;;7.03;;
23113;SDS011;11726;50.122;8.832;2023-03-08T03:48:44;11.10;;;7.03;;
23113;SDS011;11726;50.122;8.832;2023-03-08T03:51:13;10.82;;;7.15;;
23113;SDS011;11726;50.122;8.832;2023-03-08T03:53:45;10.88;;;7.55;;
23113;SDS011;11726;50.122;8.832;2023-03-08T03:58:46;11.25;;;6.95;;
23113;SDS011;11726;50.122;8.832;2023-03-08T04:01:17;9.98;;;6.68;;
23113;SDS011;11726;50.122;8.832;2023-03-08T04:03:49;9.77;;;6.45;;
23113;SDS011;11726;50.122;8.832;2023-03-08T04:06:21;10.35;;;6.32;;
23113;SDS011;11726;50.122;8.832;2023-03-08T04:08:53;11.13;;;6.95;;
23113;SDS011;11726;50.122;8.832;2023-03-08T04:11:22;12.10;;;7.00;;
23113;SDS011;11726;50.122;8.832;2023-03-08T04:13:51;9.85;;;6.05;;
23113;SDS011;11726;50.122;8.832;2023-03-08T04:16:19;8.93;;;5.72;;
23113;SDS011;11726;50.122;8.832;2023-03-08T04:18:54;9.45;;;6.60;;
23113;SDS011;11726;50.122;8.832;2023-03-08T04:21:23;10.55;;;6.65;;
23113;SDS011;11726;50.122;8.832;2023-03-08T04:23:50;8.98;;;6.25;;
23113;SDS011;11726;50.122;8.832;2023-03-08T04:26:17;9.07;;;6.32;;
23113;SDS011;11726;50.122;8.832;2023-03-08T04:28:44;9.93;;;6.82;;
23113;SDS011;11726;50.122;8.832;2023-03-08T04:33:41;10.43;;;7.15;;
23113;SDS011;11726;50.122;8.832;2023-03-08T04:36:09;13.27;;;7.93;;
23113;SDS011;11726;50.122;8.832;2023-03-08T04:38:36;13.73;;;8.95;;
23113;SDS011;11726;50.122;8.832;2023-03-08T04:41:03;13.77;;;8.93;;
23113;SDS011;11726;50.122;8.832;2023-03-08T04:43:31;16.23;;;9.52;;
23113;SDS011;11726;50.122;8.832;2023-03-08T04:45:59;15.70;;;9.80;;
23113;SDS011;11726;50.122;8.832;2023-03-08T04:48:26;15.70;;;9.98;;
23113;SDS011;11726;50.122;8.832;2023-03-08T04:50:54;12.48;;;9.30;;
23113;SDS011;11726;50.122;8.832;2023-03-08T04:53:22;16.17;;;10.43;;
23113;SDS011;11726;50.122;8.832;2023-03-08T04:55:50;16.95;;;10.90;;
23113;SDS011;11726;50.122;8.832;2023-03-08T04:58:18;15.32;;;10.15;;
23113;SDS011;11726;50.122;8.832;2023-03-08T05:00:44;16.70;;;10.32;;
23113;SDS011;11726;50.122;8.832;2023-03-08T05:03:11;17.10;;;10.82;;
23113;SDS011;11726;50.122;8.832;2023-03-08T05:05:45;16.38;;;11.35;;
23113;SDS011;11726;50.122;8.832;2023-03-08T05:08:13;19.05;;;12.38;;
23113;SDS011;11726;50.122;8.832;2023-03-08T05:10:45;17.83;;;10.93;;
23113;SDS011;11726;50.122;8.832;2023-03-08T05:13:18;17.42;;;11.57;;
23113;SDS011;11726;50.122;8.832;2023-03-08T05:15:45;19.08;;;12.23;;
23113;SDS011;11726;50.122;8.832;2023-03-08T05:18:11;19.35;;;11.98;;
23113;SDS011;11726;50.122;8.832;2023-03-08T05:20:38;19.08;;;12.35;;
23113;SDS011;11726;50.122;8.832;2023-03-08T05:23:05;16.92;;;11.70;;
23113;SDS011;11726;50.122;8.832;2023-03-08T05:25:32;20.63;;;12.82;;
23113;SDS011;11726;50.122;8.832;2023-03-08T05:27:59;19.38;;;12.13;;
23113;SDS011;11726;50.122;8.832;2023-03-08T05:30:26;18.90;;;12.30;;
23113;SDS011;11726;50.122;8.832;2023-03-08T05:32:52;23.20;;;13.57;;
23113;SDS011;11726;50.122;8.832;2023-03-08T05:35:19;19.27;;;12.95;;
23113;SDS011;11726;50.122;8.832;2023-03-08T05:37:46;19.15;;;12.38;;
23113;SDS011;11726;50.122;8.832;2023-03-08T05:40:12;20.35;;;12.98;;
23113;SDS011;11726;50.122;8.832;2023-03-08T05:42:39;20.45;;;13.50;;
23113;SDS011;11726;50.122;8.832;2023-03-08T05:45:06;20.52;;;13.35;;
23113;SDS011;11726;50.122;8.832;2023-03-08T05:47:33;22.85;;;13.48;;
23113;SDS011;11726;50.122;8.832;2023-03-08T05:50:00;21.85;;;13.13;;
23113;SDS011;11726;50.122;8.832;2023-03-08T05:52:28;19.13;;;12.90;;
23113;SDS011;11726;50.122;8.832;2023-03-08T05:54:59;19.65;;;12.57;;
23113;SDS011;11726;50.122;8.832;2023-03-08T05:57:26;19.73;;;13.15;;
23113;SDS011;11726;50.122;8.832;2023-03-08T05:59:53;20.02;;;13.35;;
23113;SDS011;11726;50.122;8.832;2023-03-08T06:02:20;22.70;;;13.45;;
23113;SDS011;11726;50.122;8.832;2023-03-08T06:04:46;21.13;;;13.00;;
23113;SDS011;11726;50.122;8.832;2023-03-08T06:07:13;20.63;;;12.75;;
23113;SDS011;11726;50.122;8.832;2023-03-08T06:09:39;19.55;;;13.00;;
23113;SDS011;11726;50.122;8.832;2023-03-08T06:12:06;21.80;;;14.32;;
23113;SDS011;11726;50.122;8.832;2023-03-08T06:14:33;18.75;;;13.20;;
23113;SDS011;11726;50.122;8.832;2023-03-08T06:16:59;19.63;;;13.38;;
23113;SDS011;11726;50.122;8.832;2023-03-08T06:19:26;22.00;;;13.73;;
23113;SDS011;11726;50.122;8.832;2023-03-08T06:21:53;20.02;;;13.55;;
23113;SDS011;11726;50.122;8.832;2023-03-08T06:24:19;20.08;;;12.70;;
23113;SDS011;11726;50.122;8.832;2023-03-08T06:26:46;21.92;;;13.38;;
23113;SDS011;11726;50.122;8.832;2023-03-08T06:29:12;20.48;;;13.55;;
23113;SDS011;11726;50.122;8.832;2023-03-08T06:31:39;20.55;;;14.50;;
23113;SDS011;11726;50.122;8.832;2023-03-08T06:34:06;20.35;;;14.05;;
23113;SDS011;11726;50.122;8.832;2023-03-08T06:36:32;19.63;;;13.35;;
23113;SDS011;11726;50.122;8.832;2023-03-08T06:38:59;20.05;;;13.73;;
23113;SDS011;11726;50.122;8.832;2023-03-08T06:41:26;21.25;;;13.77;;
23113;SDS011;11726;50.122;8.832;2023-03-08T06:43:55;22.50;;;14.63;;
23113;SDS011;11726;50.122;8.832;2023-03-08T06:46:21;24.45;;;15.23;;
23113;SDS011;11726;50.122;8.832;2023-03-08T06:48:48;21.42;;;13.25;;
23113;SDS011;11726;50.122;8.832;2023-03-08T06:51:15;21.52;;;14.13;;
23113;SDS011;11726;50.122;8.832;2023-03-08T06:53:43;21.75;;;13.38;;
23113;SDS011;11726;50.122;8.832;2023-03-08T06:56:11;21.70;;;14.38;;
23113;SDS011;11726;50.122;8.832;2023-03-08T06:58:39;23.13;;;13.57;;
23113;SDS011;11726;50.122;8.832;2023-03-08T07:01:06;24.35;;;14.10;;
23113;SDS011;11726;50.122;8.832;2023-03-08T07:03:35;22.17;;;13.88;;
23113;SDS011;11726;50.122;8.832;2023-03-08T07:06:06;24.30;;;14.25;;
23113;SDS011;11726;50.122;8.832;2023-03-08T07:08:34;22.20;;;14.77;;
23113;SDS011;11726;50.122;8.832;2023-03-08T07:11:02;23.20;;;14.73;;
23113;SDS011;11726;50.122;8.832;2023-03-08T07:13:29;22.90;;;13.90;;
23113;SDS011;11726;50.122;8.832;2023-03-08T07:15:55;22.55;;;13.10;;
23113;SDS011;11726;50.122;8.832;2023-03-08T07:18:22;23.00;;;14.20;;
23113;SDS011;11726;50.122;8.832;2023-03-08T07:20:50;21.50;;;13.95;;
23113;SDS011;11726;50.122;8.832;2023-03-08T07:23:18;21.23;;;14.65;;
23113;SDS011;11726;50.122;8.832;2023-03-08T07:25:45;24.15;;;14.35;;
23113;SDS011;11726;50.122;8.832;2023-03-08T07:28:11;19.83;;;13.18;;
23113;SDS011;11726;50.122;8.832;2023-03-08T07:30:38;22.30;;;14.32;;
23113;SDS011;11726;50.122;8.832;2023-03-08T07:33:05;21.40;;;13.48;;
23113;SDS011;11726;50.122;8.832;2023-03-08T07:35:31;22.80;;;13.85;;
23113;SDS011;11726;50.122;8.832;2023-03-08T07:37:58;21.45;;;14.10;;
23113;SDS011;11726;50.122;8.832;2023-03-08T07:40:24;22.52;;;13.65;;
23113;SDS011;11726;50.122;8.832;2023-03-08T07:42:51;22.83;;;13.55;;
23113;SDS011;11726;50.122;8.832;2023-03-08T07:45:18;24.52;;;14.35;;
23113;SDS011;11726;50.122;8.832;2023-03-08T07:47:44;21.98;;;13.15;;
23113;SDS011;11726;50.122;8.832;2023-03-08T07:50:11;19.85;;;13.45;;
23113;SDS011;11726;50.122;8.832;2023-03-08T07:52:38;25.17;;;14.45;;
23113;SDS011;11726;50.122;8.832;2023-03-08T07:55:04;22.08;;;14.23;;
23113;SDS011;11726;50.122;8.832;2023-03-08T07:57:32;21.70;;;14.07;;
23113;SDS011;11726;50.122;8.832;2023-03-08T07:59:58;22.40;;;13.90;;
23113;SDS011;11726;50.122;8.832;2023-03-08T08:02:25;23.88;;;14.75;;
23113;SDS011;11726;50.122;8.832;2023-03-08T08:04:51;24.75;;;16.10;;
23113;SDS011;11726;50.122;8.832;2023-03-08T08:07:18;26.40;;;16.30;;
23113;SDS011;11726;50.122;8.832;2023-03-08T08:09:45;25.45;;;15.48;;
23113;SDS011;11726;50.122;8.832;2023-03-08T08:12:11;28.38;;;16.92;;
23113;SDS011;11726;50.122;8.832;2023-03-08T08:14:38;27.35;;;16.45;;
23113;SDS011;11726;50.122;8.832;2023-03-08T08:17:05;26.27;;;16.52;;
23113;SDS011;11726;50.122;8.832;2023-03-08T08:19:31;25.73;;;15.60;;
23113;SDS011;11726;50.122;8.832;2023-03-08T08:21:58;25.67;;;16.70;;
23113;SDS011;11726;50.122;8.832;2023-03-08T08:24:26;24.60;;;15.88;;
23113;SDS011;11726;50.122;8.832;2023-03-08T08:26:53;27.30;;;15.95;;
23113;SDS011;11726;50.122;8.832;2023-03-08T08:29:19;26.48;;;16.40;;
23113;SDS011;11726;50.122;8.832;2023-03-08T08:31:46;22.40;;;15.15;;
23113;SDS011;11726;50.122;8.832;2023-03-08T08:34:13;27.50;;;15.93;;
23113;SDS011;11726;50.122;8.832;2023-03-08T08:36:39;26.60;;;16.33;;
23113;SDS011;11726;50.122;8.832;2023-03-08T08:39:06;23.85;;;15.23;;
23113;SDS011;11726;50.122;8.832;2023-03-08T08:41:33;23.85;;;14.68;;
23113;SDS011;11726;50.122;8.832;2023-03-08T08:43:59;25.75;;;15.05;;
23113;SDS011;11726;50.122;8.832;2023-03-08T08:46:26;24.85;;;15.68;;
23113;SDS011;11726;50.122;8.832;2023-03-08T08:48:54;26.77;;;16.20;;
23113;SDS011;11726;50.122;8.832;2023-03-08T08:51:21;24.73;;;15.45;;
23113;SDS011;11726;50.122;8.832;2023-03-08T08:53:47;22.67;;;14.88;;
23113;SDS011;11726;50.122;8.832;2023-03-08T08:56:18;24.10;;;15.18;;
23113;SDS011;11726;50.122;8.832;2023-03-08T08:58:54;20.60;;;14.13;;
23113;SDS011;11726;50.122;8.832;2023-03-08T09:01:30;21.52;;;13.98;;
23113;SDS011;11726;50.122;8.832;2023-03-08T09:03:58;21.73;;;13.48;;
23113;SDS011;11726;50.122;8.832;2023-03-08T09:06:26;21.67;;;14.13;;
23113;SDS011;11726;50.122;8.832;2023-03-08T09:08:54;20.20;;;14.30;;
23113;SDS011;11726;50.122;8.832;2023-03-08T09:11:23;24.58;;;15.27;;
23113;SDS011;11726;50.122;8.832;2023-03-08T09:13:51;23.08;;;15.38;;
23113;SDS011;11726;50.122;8.832;2023-03-08T09:16:23;23.55;;;15.20;;
23113;SDS011;11726;50.122;8.832;2023-03-08T09:18:54;26.38;;;15.95;;
23113;SDS011;11726;50.122;8.832;2023-03-08T09:21:22;22.58;;;15.30;;
23113;SDS011;11726;50.122;8.832;2023-03-08T09:23:50;26.33;;;16.73;;
23113;SDS011;11726;50.122;8.832;2023-03-08T09:26:17;27.90;;;17.63;;
23113;SDS011;11726;50.122;8.832;2023-03-08T09:28:44;24.95;;;16.48;;
23113;SDS011;11726;50.122;8.832;2023-03-08T09:31:14;27.10;;;17.20;;
23113;SDS011;11726;50.122;8.832;2023-03-08T09:33:43;27.67;;;17.98;;
23113;SDS011;11726;50.122;8.832;2023-03-08T09:36:11;25.40;;;16.67;;
23113;SDS011;11726;50.122;8.832;2023-03-08T09:38:38;25.30;;;16.67;;
23113;SDS011;11726;50.122;8.832;2023-03-08T09:41:09;28.45;;;17.95;;
23113;SDS011;11726;50.122;8.832;2023-03-08T09:46:28;25.17;;;18.02;;
23113;SDS011;11726;50.122;8.832;2023-03-08T09:48:59;24.65;;;16.83;;
23113;SDS011;11726;50.122;8.832;2023-03-08T09:51:30;26.08;;;17.17;;
23113;SDS011;11726;50.122;8.832;2023-03-08T09:54:03;23.00;;;15.73;;
23113;SDS011;11726;50.122;8.832;2023-03-08T09:56:34;24.45;;;17.17;;
23113;SDS011;11726;50.122;8.832;2023-03-08T10:01:59;24.15;;;16.65;;
23113;SDS011;11726;50.122;8.832;2023-03-08T10:04:47;28.38;;;18.75;;
23113;SDS011;11726;50.122;8.832;2023-03-08T10:10:18;23.90;;;16.27;;
23113;SDS011;11726;50.122;8.832;2023-03-08T10:15:54;21.83;;;16.17;;
23113;SDS011;11726;50.122;8.832;2023-03-08T10:18:45;25.90;;;17.20;;
23113;SDS011;11726;50.122;8.832;2023-03-08T10:21:20;25.92;;;17.95;;
23113;SDS011;11726;50.122;8.832;2023-03-08T10:23:54;25.35;;;17.60;;
23113;SDS011;11726;50.122;8.832;2023-03-08T10:26:39;24.33;;;16.40;;
23113;SDS011;11726;50.122;8.832;2023-03-08T10:29:09;28.10;;;17.80;;
23113;SDS011;11726;50.122;8.832;2023-03-08T10:31:38;24.27;;;16.90;;
23113;SDS011;11726;50.122;8.832;2023-03-08T10:36:33;21.35;;;15.65;;
23113;SDS011;11726;50.122;8.832;2023-03-08T10:39:11;23.05;;;15.65;;
23113;SDS011;11726;50.122;8.832;2023-03-08T10:41:43;23.13;;;16.02;;
23113;SDS011;11726;50.122;8.832;2023-03-08T10:44:14;22.83;;;15.80;;
23113;SDS011;11726;50.122;8.832;2023-03-08T10:46:55;22.33;;;15.38;;
23113;SDS011;11726;50.122;8.832;2023-03-08T10:49:22;24.38;;;16.50;;
23113;SDS011;11726;50.122;8.832;2023-03-08T10:51:56;20.75;;;14.93;;
23113;SDS011;11726;50.122;8.832;2023-03-08T10:54:25;23.55;;;15.80;;
23113;SDS011;11726;50.122;8.832;2023-03-08T10:56:57;28.80;;;17.80;;
23113;SDS011;11726;50.122;8.832;2023-03-08T11:01:59;23.13;;;15.63;;
23113;SDS011;11726;50.122;8.832;2023-03-08T11:04:55;21.13;;;14.65;;
23113;SDS011;11726;50.122;8.832;2023-03-08T11:07:26;20.60;;;14.93;;
23113;SDS011;11726;50.122;8.832;2023-03-08T11:10:31;21.52;;;15.38;;
23113;SDS011;11726;50.122;8.832;2023-03-08T11:13:04;18.90;;;13.82;;
23113;SDS011;11726;50.122;8.832;2023-03-08T11:15:37;19.45;;;13.07;;
23113;SDS011;11726;50.122;8.832;2023-03-08T11:18:29;18.10;;;12.93;;
23113;SDS011;11726;50.122;8.832;2023-03-08T11:21:07;16.30;;;12.25;;
23113;SDS011;11726;50.122;8.832;2023-03-08T11:23:43;20.83;;;13.95;;
23113;SDS011;11726;50.122;8.832;2023-03-08T11:27:28;18.38;;;12.50;;
23113;SDS011;11726;50.122;8.832;2023-03-08T11:32:38;17.63;;;11.88;;
23113;SDS011;11726;50.122;8.832;2023-03-08T11:38:23;16.27;;;12.15;;
23113;SDS011;11726;50.122;8.832;2023-03-08T11:43:52;16.60;;;12.68;;
23113;SDS011;11726;50.122;8.832;2023-03-08T11:46:49;17.95;;;12.82;;
23113;SDS011;11726;50.122;8.832;2023-03-08T12:00:38;18.50;;;12.65;;
23113;SDS011;11726;50.122;8.832;2023-03-08T12:03:12;17.00;;;12.23;;
23113;SDS011;11726;50.122;8.832;2023-03-08T12:05:55;17.55;;;12.13;;
23113;SDS011;11726;50.122;8.832;2023-03-08T12:08:32;20.23;;;14.00;;
23113;SDS011;11726;50.122;8.832;2023-03-08T12:11:20;20.63;;;14.18;;
23113;SDS011;11726;50.122;8.832;2023-03-08T12:13:57;16.70;;;12.50;;
23113;SDS011;11726;50.122;8.832;2023-03-08T12:16:39;20.50;;;13.38;;
23113;SDS011;11726;50.122;8.832;2023-03-08T12:19:16;20.15;;;13.32;;
23113;SDS011;11726;50.122;8.832;2023-03-08T12:21:47;18.30;;;13.00;;
23113;SDS011;11726;50.122;8.832;2023-03-08T12:27:07;15.63;;;11.43;;
23113;SDS011;11726;50.122;8.832;2023-03-08T12:32:39;15.27;;;11.90;;
23113;SDS011;11726;50.122;8.832;2023-03-08T12:35:31;18.42;;;12.98;;
23113;SDS011;11726;50.122;8.832;2023-03-08T12:45:57;18.02;;;12.52;;
23113;SDS011;11726;50.122;8.832;2023-03-08T12:48:26;16.83;;;12.93;;
23113;SDS011;11726;50.122;8.832;2023-03-08T13:33:00;8.95;;;7.97;;
23113;SDS011;11726;50.122;8.832;2023-03-08T13:35:33;10.52;;;8.52;;
23113;SDS011;11726;50.122;8.832;2023-03-08T13:38:00;11.50;;;9.50;;
23113;SDS011;11726;50.122;8.832;2023-03-08T13:40:27;10.80;;;9.60;;
23113;SDS011;11726;50.122;8.832;2023-03-08T13:45:24;9.40;;;8.05;;
23113;SDS011;11726;50.122;8.832;2023-03-08T13:47:52;11.90;;;9.90;;
23113;SDS011;11726;50.122;8.832;2023-03-08T13:51:03;11.02;;;9.30;;
23113;SDS011;11726;50.122;8.832;2023-03-08T13:53:13;11.90;;;9.88;;
23113;SDS011;11726;50.122;8.832;2023-03-08T13:55:53;14.75;;;10.45;;
23113;SDS011;11726;50.122;8.832;2023-03-08T13:58:27;13.07;;;10.25;;
23113;SDS011;11726;50.122;8.832;2023-03-08T14:03:38;13.02;;;10.02;;
23113;SDS011;11726;50.122;8.832;2023-03-08T14:06:16;13.05;;;9.98;;
23113;SDS011;11726;50.122;8.832;2023-03-08T14:08:44;12.40;;;10.95;;
23113;SDS011;11726;50.122;8.832;2023-03-08T14:11:14;11.25;;;9.07;;
23113;SDS011;11726;50.122;8.832;2023-03-08T14:13:44;11.57;;;10.38;;
23113;SDS011;11726;50.122;8.832;2023-03-08T14:16:23;11.25;;;9.63;;
23113;SDS011;11726;50.122;8.832;2023-03-08T14:19:11;13.48;;;10.50;;
23113;SDS011;11726;50.122;8.832;2023-03-08T14:21:47;10.73;;;9.23;;
23113;SDS011;11726;50.122;8.832;2023-03-08T14:24:27;13.57;;;11.20;;
23113;SDS011;11726;50.122;8.832;2023-03-08T14:29:49;13.52;;;11.32;;
23113;SDS011;11726;50.122;8.832;2023-03-08T14:32:28;14.10;;;11.38;;
23113;SDS011;11726;50.122;8.832;2023-03-08T14:35:13;15.05;;;11.38;;
23113;SDS011;11726;50.122;8.832;2023-03-08T14:38:01;14.52;;;11.65;;
23113;SDS011;11726;50.122;8.832;2023-03-08T14:40:31;17.25;;;13.20;;
23113;SDS011;11726;50.122;8.832;2023-03-08T14:43:02;14.50;;;11.98;;
23113;SDS011;11726;50.122;8.832;2023-03-08T14:45:41;14.10;;;11.45;;
23113;SDS011;11726;50.122;8.832;2023-03-08T14:48:36;13.98;;;11.70;;
23113;SDS011;11726;50.122;8.832;2023-03-08T14:51:24;14.10;;;11.40;;
23113;SDS011;11726;50.122;8.832;2023-03-08T14:54:00;15.35;;;12.80;;
23113;SDS011;11726;50.122;8.832;2023-03-08T14:56:28;13.52;;;11.77;;
23113;SDS011;11726;50.122;8.832;2023-03-08T14:58:57;15.57;;;13.75;;
23113;SDS011;11726;50.122;8.832;2023-03-08T15:01:27;17.83;;;13.43;;
23113;SDS011;11726;50.122;8.832;2023-03-08T15:03:56;16.60;;;13.27;;
23113;SDS011;11726;50.122;8.832;2023-03-08T15:06:24;17.77;;;14.50;;
23113;SDS011;11726;50.122;8.832;2023-03-08T15:08:56;16.63;;;13.98;;
23113;SDS011;11726;50.122;8.832;2023-03-08T15:11:24;16.10;;;13.52;;
23113;SDS011;11726;50.122;8.832;2023-03-08T15:13:52;17.20;;;14.02;;
23113;SDS011;11726;50.122;8.832;2023-03-08T15:16:19;17.27;;;14.20;;
23113;SDS011;11726;50.122;8.832;2023-03-08T15:18:46;19.63;;;15.65;;
23113;SDS011;11726;50.122;8.832;2023-03-08T15:21:13;19.75;;;15.48;;
23113;SDS011;11726;50.122;8.832;2023-03-08T15:23:45;21.98;;;16.80;;
23113;SDS011;11726;50.122;8.832;2023-03-08T15:26:13;18.33;;;15.18;;
23113;SDS011;11726;50.122;8.832;2023-03-08T15:28:46;22.70;;;17.55;;
23113;SDS011;11726;50.122;8.832;2023-03-08T15:31:13;20.73;;;16.73;;
23113;SDS011;11726;50.122;8.832;2023-03-08T15:33:39;23.85;;;18.27;;
23113;SDS011;11726;50.122;8.832;2023-03-08T15:36:08;23.83;;;18.42;;
23113;SDS011;11726;50.122;8.832;2023-03-08T15:38:38;28.45;;;19.75;;
23113;SDS011;11726;50.122;8.832;2023-03-08T15:41:05;24.05;;;19.13;;
23113;SDS011;11726;50.122;8.832;2023-03-08T15:43:35;22.35;;;18.27;;
23113;SDS011;11726;50.122;8.832;2023-03-08T15:46:01;25.15;;;20.85;;
23113;SDS011;11726;50.122;8.832;2023-03-08T15:48:28;24.27;;;19.83;;
23113;SDS011;11726;50.122;8.832;2023-03-08T15:50:57;23.85;;;19.95;;
23113;SDS011;11726;50.122;8.832;2023-03-08T15:53:24;27.85;;;22.52;;
23113;SDS011;11726;50.122;8.832;2023-03-08T15:56:01;30.23;;;23.45;;
23113;SDS011;11726;50.122;8.832;2023-03-08T15:58:28;27.27;;;21.17;;
23113;SDS011;11726;50.122;8.832;2023-03-08T16:00:54;31.25;;;21.90;;
23113;SDS011;11726;50.122;8.832;2023-03-08T16:03:21;26.75;;;20.92;;
23113;SDS011;11726;50.122;8.832;2023-03-08T16:05:56;30.38;;;22.75;;
23113;SDS011;11726;50.122;8.832;2023-03-08T16:08:23;29.45;;;21.73;;
23113;SDS011;11726;50.122;8.832;2023-03-08T16:10:50;30.75;;;23.13;;
23113;SDS011;11726;50.122;8.832;2023-03-08T16:13:17;25.85;;;20.63;;
23113;SDS011;11726;50.122;8.832;2023-03-08T16:15:47;27.70;;;21.05;;
23113;SDS011;11726;50.122;8.832;2023-03-08T16:18:14;33.17;;;23.45;;
23113;SDS011;11726;50.122;8.832;2023-03-08T16:20:41;35.10;;;24.67;;
23113;SDS011;11726;50.122;8.832;2023-03-08T16:23:08;36.63;;;24.67;;
23113;SDS011;11726;50.122;8.832;2023-03-08T16:25:34;35.58;;;24.63;;
23113;SDS011;11726;50.122;8.832;2023-03-08T16:28:01;30.33;;;23.08;;
23113;SDS011;11726;50.122;8.832;2023-03-08T16:30:28;28.70;;;21.27;;